Observations for PARMA, Italy (LIMP)

LIMP 260454Z 21004KT CAVOK 19/19 Q1018
LIMP 252050Z 16007KT CAVOK 24/22 Q1017  
LIMP 251950Z 12003KT CAVOK 25/22 Q1017  
LIMP 251850Z 12003KT CAVOK 26/22 Q1017  
LIMP 251750Z 12003KT CAVOK 28/22 Q1016  
LIMP 251650Z 09003KT CAVOK 29/22 Q1016  
LIMP 251550Z 09005KT 060V120 CAVOK 30/22 Q1016  
LIMP 251450Z VRB04KT CAVOK 30/22 Q1016  
LIMP 251350Z 07005KT 010V110 CAVOK 30/21 Q1017  
LIMP 251250Z 03004KT 310V120 CAVOK 30/22 Q1017  
LIMP 251050Z 08005KT 020V120 CAVOK 28/22 Q1018  
LIMP 250950Z 02003KT 270V080 CAVOK 26/22 Q1018  
LIMP 250750Z 23003KT 210V280 CAVOK 23/21 Q1018  
LIMP 250650Z 22003KT CAVOK 22/21 Q1018